ITY621 OMDB-LIRF
Flight info
| Callsign | ITY621 |
|---|---|
| Flight time | N/A |
| Altitude | 38000 |
| Route | RIDAP M557 TUMAK L602 ALPET L718 KABAN UL718 ULSAB/N0485F400 UG8 YAA UG12 GOLDO UN79 PINDO DCT PAPIZ DCT EKTOL DCT AMSOR DCT IPKAM DCT TEA/N0379F180 Z803 LAT |
| Aircraft | A359/H-SDE1E2E3FGHIJ2J3J4J5M1RWXY/LB1D1 |
Departure
| Time | 2026-04-21 09:02 |
|---|---|
| Airport | Dubai International Airport (OMDB) |
Arrival
| Time | N/A |
|---|---|
| Airport | Rome–Fiumicino Leonardo da Vinci International Airport (LIRF) |
| Time | Latitude | Longitude | Altitude | Speed | Heading |
|---|---|---|---|---|---|
| 2026-04-21 09:00 | 25.23715 | 55.38907 | 48 ft | 13 kts | 119° |
| 2026-04-21 09:00 | 25.23668 | 55.38990 | 48 ft | 12 kts | 124° |
| 2026-04-21 09:00 | 25.23671 | 55.39046 | 48 ft | 8 kts | 38° |
| 2026-04-21 09:00 | 25.23719 | 55.39060 | 48 ft | 7 kts | 349° |
| 2026-04-21 09:01 | 25.23763 | 55.39041 | 48 ft | 7 kts | 335° |
| 2026-04-21 09:01 | 25.23817 | 55.39015 | 48 ft | 10 kts | 337° |
| 2026-04-21 09:01 | 25.23876 | 55.38976 | 48 ft | 10 kts | 306° |
| 2026-04-21 09:01 | 25.23952 | 55.38843 | 48 ft | 39 kts | 302° |
| 2026-04-21 09:02 | 25.24221 | 55.38357 | 48 ft | 108 kts | 301° |
| 2026-04-21 09:02 | 25.24733 | 55.37422 | 55 ft | 176 kts | 301° |
| 2026-04-21 09:02 | 25.25418 | 55.36209 | 828 ft | 183 kts | 302° |
| 2026-04-21 09:03 | 25.26839 | 55.33852 | 2377 ft | 193 kts | 304° |
| 2026-04-21 09:03 | 25.27638 | 55.32564 | 2662 ft | 215 kts | 304° |
| 2026-04-21 09:03 | 25.28528 | 55.31130 | 2841 ft | 238 kts | 304° |
| 2026-04-21 09:03 | 25.29506 | 55.29550 | 3096 ft | 258 kts | 304° |
| 2026-04-21 09:04 | 25.30544 | 55.27895 | 3646 ft | 264 kts | 305° |
| 2026-04-21 09:04 | 25.31616 | 55.26218 | 4290 ft | 268 kts | 305° |
| 2026-04-21 09:04 | 25.32695 | 55.24534 | 4988 ft | 270 kts | 305° |
| 2026-04-21 09:04 | 25.33786 | 55.22823 | 5627 ft | 273 kts | 305° |
| 2026-04-21 09:05 | 25.34822 | 55.21093 | 6250 ft | 275 kts | 298° |
| 2026-04-21 09:05 | 25.35443 | 55.19079 | 6847 ft | 279 kts | 282° |
| 2026-04-21 09:05 | 25.35653 | 55.16935 | 7468 ft | 281 kts | 275° |
| 2026-04-21 09:05 | 25.35725 | 55.14760 | 8090 ft | 283 kts | 271° |
| 2026-04-21 09:06 | 25.35690 | 55.12567 | 8666 ft | 286 kts | 269° |
| 2026-04-21 09:06 | 25.35597 | 55.10354 | 9234 ft | 289 kts | 268° |
| 2026-04-21 09:06 | 25.35497 | 55.08159 | 9846 ft | 289 kts | 268° |
| 2026-04-21 09:06 | 25.35404 | 55.05928 | 10365 ft | 293 kts | 269° |
| 2026-04-21 09:07 | 25.35313 | 55.03616 | 10578 ft | 308 kts | 269° |
| 2026-04-21 09:07 | 25.35220 | 55.01186 | 10742 ft | 325 kts | 269° |
| 2026-04-21 09:07 | 25.35124 | 54.98621 | 10912 ft | 343 kts | 269° |
| 2026-04-21 09:07 | 25.35028 | 54.95919 | 11204 ft | 358 kts | 270° |
| 2026-04-21 09:08 | 25.35138 | 54.93128 | 11671 ft | 367 kts | 276° |
| 2026-04-21 09:08 | 25.35371 | 54.90292 | 12335 ft | 372 kts | 277° |
| 2026-04-21 09:08 | 25.35797 | 54.87450 | 13039 ft | 376 kts | 283° |
| 2026-04-21 09:08 | 25.36181 | 54.85775 | 13480 ft | 379 kts | 285° |
| 2026-04-21 09:09 | 25.36985 | 54.82984 | 14191 ft | 383 kts | 288° |
| 2026-04-21 09:09 | 25.37870 | 54.80188 | 14913 ft | 387 kts | 288° |
| 2026-04-21 09:09 | 25.38718 | 54.77346 | 15613 ft | 391 kts | 287° |
| 2026-04-21 09:09 | 25.39540 | 54.74460 | 16289 ft | 395 kts | 286° |
| 2026-04-21 09:10 | 25.40356 | 54.71543 | 16973 ft | 398 kts | 285° |
| 2026-04-21 09:10 | 25.41195 | 54.68607 | 17613 ft | 403 kts | 286° |
| 2026-04-21 09:10 | 25.42060 | 54.65647 | 18241 ft | 406 kts | 285° |
| 2026-04-21 09:10 | 25.42925 | 54.62659 | 18894 ft | 409 kts | 285° |
| 2026-04-21 09:11 | 25.43793 | 54.59655 | 19496 ft | 412 kts | 285° |
| 2026-04-21 09:11 | 25.44682 | 54.56670 | 20112 ft | 414 kts | 286° |
| 2026-04-21 09:11 | 25.45591 | 54.53632 | 20656 ft | 417 kts | 286° |
| 2026-04-21 09:11 | 25.46495 | 54.50571 | 21190 ft | 420 kts | 286° |
| 2026-04-21 09:12 | 25.47401 | 54.47485 | 21745 ft | 421 kts | 286° |
| 2026-04-21 09:12 | 25.48304 | 54.44396 | 22264 ft | 423 kts | 286° |
| 2026-04-21 09:12 | 25.49213 | 54.41280 | 22720 ft | 426 kts | 286° |
| 2026-04-21 09:12 | 25.50125 | 54.38150 | 23188 ft | 428 kts | 286° |
| 2026-04-21 09:13 | 25.51043 | 54.34998 | 23608 ft | 431 kts | 286° |
| 2026-04-21 09:13 | 25.51965 | 54.31831 | 24050 ft | 433 kts | 286° |
| 2026-04-21 09:13 | 25.52893 | 54.28648 | 24427 ft | 436 kts | 286° |
| 2026-04-21 09:13 | 25.53826 | 54.25446 | 24802 ft | 439 kts | 286° |
| 2026-04-21 09:14 | 25.54770 | 54.22217 | 25149 ft | 442 kts | 286° |
| 2026-04-21 09:14 | 25.55740 | 54.18971 | 25495 ft | 445 kts | 286° |
| 2026-04-21 09:14 | 25.56707 | 54.15705 | 25832 ft | 448 kts | 286° |
| 2026-04-21 09:14 | 25.57664 | 54.12456 | 26189 ft | 451 kts | 286° |
| 2026-04-21 09:15 | 25.58641 | 54.09142 | 26529 ft | 453 kts | 286° |
| 2026-04-21 09:15 | 25.59620 | 54.05811 | 26847 ft | 457 kts | 286° |
| 2026-04-21 09:15 | 25.60591 | 54.02446 | 27175 ft | 459 kts | 286° |
| 2026-04-21 09:15 | 25.61555 | 53.99060 | 27541 ft | 461 kts | 286° |
| 2026-04-21 09:16 | 25.62191 | 53.96813 | 27808 ft | 462 kts | 286° |
| 2026-04-21 09:16 | 25.63152 | 53.93408 | 28126 ft | 464 kts | 286° |
| 2026-04-21 09:16 | 25.64121 | 53.89971 | 28417 ft | 468 kts | 286° |
| 2026-04-21 09:16 | 25.65093 | 53.86524 | 28742 ft | 469 kts | 286° |
| 2026-04-21 09:17 | 25.66068 | 53.83062 | 29034 ft | 472 kts | 285° |
| 2026-04-21 09:17 | 25.67046 | 53.79586 | 29327 ft | 474 kts | 286° |
| 2026-04-21 09:17 | 25.68033 | 53.76085 | 29649 ft | 476 kts | 286° |
| 2026-04-21 09:17 | 25.69025 | 53.72560 | 29927 ft | 478 kts | 286° |
| 2026-04-21 09:18 | 25.70022 | 53.69038 | 30219 ft | 480 kts | 286° |
| 2026-04-21 09:18 | 25.71016 | 53.65509 | 30570 ft | 480 kts | 286° |
| 2026-04-21 09:18 | 25.72005 | 53.61978 | 30926 ft | 479 kts | 286° |
| 2026-04-21 09:18 | 25.72975 | 53.58508 | 31422 ft | 475 kts | 286° |
| 2026-04-21 09:19 | 25.73947 | 53.55028 | 31998 ft | 469 kts | 286° |
| 2026-04-21 09:19 | 25.74909 | 53.51590 | 32531 ft | 465 kts | 286° |
| 2026-04-21 09:19 | 25.75867 | 53.48184 | 33008 ft | 461 kts | 287° |
| 2026-04-21 09:19 | 25.76840 | 53.44797 | 33400 ft | 460 kts | 287° |
| 2026-04-21 09:20 | 25.77794 | 53.41434 | 33927 ft | 454 kts | 287° |
| 2026-04-21 09:20 | 25.78730 | 53.38115 | 34549 ft | 446 kts | 287° |
| 2026-04-21 09:20 | 25.79639 | 53.34879 | 35402 ft | 433 kts | 287° |
| 2026-04-21 09:20 | 25.80522 | 53.31728 | 36198 ft | 421 kts | 287° |
| 2026-04-21 09:21 | 25.81380 | 53.28672 | 36969 ft | 410 kts | 287° |
| 2026-04-21 09:21 | 25.82218 | 53.25681 | 37568 ft | 402 kts | 287° |
| 2026-04-21 09:21 | 25.83046 | 53.22724 | 37887 ft | 400 kts | 287° |
| 2026-04-21 09:21 | 25.83874 | 53.19772 | 37955 ft | 402 kts | 287° |
| 2026-04-21 09:22 | 25.85892 | 53.13975 | 37928 ft | 403 kts | 293° |
| 2026-04-21 09:22 | 25.88277 | 53.08346 | 37930 ft | 402 kts | 294° |
| 2026-04-21 09:23 | 25.90658 | 53.02727 | 37928 ft | 401 kts | 293° |
| 2026-04-21 09:23 | 25.92946 | 52.97119 | 37926 ft | 401 kts | 293° |
| 2026-04-21 09:24 | 25.95230 | 52.91462 | 37925 ft | 401 kts | 293° |
| 2026-04-21 09:24 | 25.97507 | 52.85811 | 37912 ft | 400 kts | 292° |
| 2026-04-21 09:25 | 25.99780 | 52.80168 | 37914 ft | 400 kts | 292° |
| 2026-04-21 09:25 | 26.02053 | 52.74523 | 37914 ft | 400 kts | 292° |
| 2026-04-21 09:26 | 26.04509 | 52.68998 | 37912 ft | 400 kts | 295° |
| 2026-04-21 09:26 | 26.07050 | 52.63484 | 37909 ft | 400 kts | 294° |
| 2026-04-21 09:27 | 26.09534 | 52.57957 | 37913 ft | 399 kts | 294° |
| 2026-04-21 09:27 | 26.12015 | 52.52432 | 37913 ft | 399 kts | 294° |
| 2026-04-21 09:28 | 26.14522 | 52.46937 | 37914 ft | 398 kts | 294° |
| 2026-04-21 09:28 | 26.17016 | 52.41428 | 37912 ft | 398 kts | 294° |
| 2026-04-21 09:29 | 26.19502 | 52.35918 | 37913 ft | 398 kts | 294° |
| 2026-04-21 09:29 | 26.21986 | 52.30411 | 37878 ft | 398 kts | 294° |
| 2026-04-21 09:30 | 26.24405 | 52.24871 | 37873 ft | 398 kts | 293° |
| 2026-04-21 09:30 | 26.26806 | 52.19309 | 37872 ft | 398 kts | 293° |
| 2026-04-21 09:31 | 26.29204 | 52.13750 | 37868 ft | 398 kts | 293° |
| 2026-04-21 09:31 | 26.31605 | 52.08188 | 37868 ft | 398 kts | 293° |
| 2026-04-21 09:32 | 26.33993 | 52.02620 | 37889 ft | 398 kts | 293° |
| 2026-04-21 09:32 | 26.36357 | 51.97087 | 37892 ft | 397 kts | 293° |
| 2026-04-21 09:33 | 26.38587 | 51.91468 | 37894 ft | 396 kts | 289° |
| 2026-04-21 09:33 | 26.40434 | 51.85670 | 37891 ft | 396 kts | 288° |
| 2026-04-21 09:34 | 26.42331 | 51.79897 | 37892 ft | 396 kts | 289° |
| 2026-04-21 09:34 | 26.44286 | 51.74188 | 37913 ft | 396 kts | 289° |
| 2026-04-21 09:35 | 26.46227 | 51.68423 | 37912 ft | 397 kts | 289° |
| 2026-04-21 09:35 | 26.48193 | 51.62671 | 37910 ft | 397 kts | 289° |
| 2026-04-21 09:36 | 26.50123 | 51.56904 | 37902 ft | 397 kts | 289° |
| 2026-04-21 09:36 | 26.52034 | 51.51129 | 37897 ft | 396 kts | 288° |
| 2026-04-21 09:37 | 26.53942 | 51.45350 | 37896 ft | 397 kts | 288° |
| 2026-04-21 09:37 | 26.55850 | 51.39561 | 37895 ft | 397 kts | 288° |
| 2026-04-21 09:38 | 26.57760 | 51.33770 | 37894 ft | 397 kts | 288° |
| 2026-04-21 09:38 | 26.59668 | 51.27985 | 37892 ft | 397 kts | 288° |
| 2026-04-21 09:39 | 26.61601 | 51.22193 | 37890 ft | 401 kts | 288° |
| 2026-04-21 09:39 | 26.63550 | 51.16278 | 37891 ft | 409 kts | 287° |
| 2026-04-21 09:40 | 26.65525 | 51.10265 | 37890 ft | 413 kts | 287° |
| 2026-04-21 09:40 | 26.67503 | 51.04241 | 37889 ft | 412 kts | 287° |
| 2026-04-21 09:41 | 26.69458 | 50.98260 | 37888 ft | 411 kts | 287° |
| 2026-04-21 09:41 | 26.71405 | 50.92247 | 37887 ft | 411 kts | 287° |
| 2026-04-21 09:42 | 26.73331 | 50.86232 | 37887 ft | 410 kts | 287° |
| 2026-04-21 09:42 | 26.75254 | 50.80203 | 37886 ft | 411 kts | 287° |
| 2026-04-21 09:43 | 26.77165 | 50.74205 | 37885 ft | 412 kts | 287° |
| 2026-04-21 09:43 | 26.79097 | 50.68166 | 37880 ft | 411 kts | 288° |
| 2026-04-21 09:44 | 26.81884 | 50.62555 | 37884 ft | 416 kts | 302° |
| 2026-04-21 09:44 | 26.85609 | 50.57556 | 37863 ft | 419 kts | 304° |
| 2026-04-21 09:45 | 26.89330 | 50.52513 | 37863 ft | 420 kts | 303° |
| 2026-04-21 09:45 | 26.93049 | 50.47461 | 37863 ft | 421 kts | 306° |
| 2026-04-21 09:46 | 26.97115 | 50.42717 | 37863 ft | 422 kts | 308° |
| 2026-04-21 09:46 | 27.01152 | 50.37982 | 37863 ft | 422 kts | 307° |
| 2026-04-21 09:47 | 27.05177 | 50.33170 | 37873 ft | 422 kts | 307° |
| 2026-04-21 09:47 | 27.09186 | 50.28350 | 37875 ft | 422 kts | 306° |
| 2026-04-21 09:48 | 27.13189 | 50.23518 | 37875 ft | 421 kts | 306° |
| 2026-04-21 09:48 | 27.17367 | 50.18883 | 37876 ft | 426 kts | 313° |
| 2026-04-21 09:49 | 27.22129 | 50.14930 | 37876 ft | 430 kts | 317° |
| 2026-04-21 09:49 | 27.27005 | 50.10979 | 37860 ft | 432 kts | 315° |
| 2026-04-21 09:50 | 27.30236 | 50.08293 | 37856 ft | 432 kts | 315° |
| 2026-04-21 09:50 | 27.36651 | 50.02956 | 37858 ft | 430 kts | 315° |
| 2026-04-21 09:51 | 27.41379 | 49.98826 | 37860 ft | 430 kts | 314° |
| 2026-04-21 09:51 | 27.46048 | 49.94690 | 37861 ft | 429 kts | 314° |
| 2026-04-21 09:52 | 27.50743 | 49.90550 | 37863 ft | 428 kts | 314° |
| 2026-04-21 09:52 | 27.55455 | 49.86426 | 37865 ft | 429 kts | 314° |
| 2026-04-21 09:53 | 27.60165 | 49.82288 | 37867 ft | 429 kts | 314° |
| 2026-04-21 09:53 | 27.64861 | 49.78140 | 37883 ft | 429 kts | 314° |
| 2026-04-21 09:54 | 27.69553 | 49.73990 | 37891 ft | 429 kts | 314° |
| 2026-04-21 09:54 | 27.74250 | 49.69833 | 37893 ft | 429 kts | 314° |
| 2026-04-21 09:55 | 27.78945 | 49.65675 | 37894 ft | 429 kts | 314° |
| 2026-04-21 09:55 | 27.83628 | 49.61509 | 37896 ft | 428 kts | 313° |
| 2026-04-21 09:56 | 27.88308 | 49.57320 | 37892 ft | 428 kts | 313° |
| 2026-04-21 09:56 | 27.92975 | 49.53134 | 37894 ft | 428 kts | 313° |
| 2026-04-21 09:57 | 27.97612 | 49.48971 | 37897 ft | 428 kts | 313° |
| 2026-04-21 09:57 | 28.02285 | 49.44776 | 37906 ft | 428 kts | 313° |
| 2026-04-21 09:58 | 28.06948 | 49.40559 | 37911 ft | 428 kts | 313° |
| 2026-04-21 09:58 | 28.11597 | 49.36322 | 37913 ft | 429 kts | 313° |
| 2026-04-21 09:59 | 28.15462 | 49.32791 | 37895 ft | 429 kts | 313° |
| 2026-04-21 09:59 | 28.20109 | 49.28541 | 37894 ft | 429 kts | 313° |
| 2026-04-21 10:00 | 28.24759 | 49.24288 | 37895 ft | 429 kts | 313° |
| 2026-04-21 10:00 | 28.29398 | 49.20030 | 37897 ft | 429 kts | 312° |
| 2026-04-21 10:01 | 28.34035 | 49.15748 | 37900 ft | 429 kts | 312° |
| 2026-04-21 10:01 | 28.38667 | 49.11466 | 37902 ft | 429 kts | 312° |
| 2026-04-21 10:02 | 28.46001 | 49.05531 | 37904 ft | 434 kts | 318° |
| 2026-04-21 10:03 | 28.51045 | 49.01805 | 37906 ft | 436 kts | 317° |
| 2026-04-21 10:03 | 28.56102 | 48.97982 | 37907 ft | 436 kts | 317° |
| 2026-04-21 10:04 | 28.61142 | 48.94133 | 37908 ft | 436 kts | 317° |
| 2026-04-21 10:04 | 28.66165 | 48.90271 | 37908 ft | 435 kts | 316° |
| 2026-04-21 10:05 | 28.71194 | 48.86398 | 37910 ft | 436 kts | 316° |
| 2026-04-21 10:05 | 28.76215 | 48.82529 | 37911 ft | 436 kts | 316° |
| 2026-04-21 10:06 | 28.81247 | 48.78647 | 37912 ft | 436 kts | 316° |
| 2026-04-21 10:06 | 28.86248 | 48.74812 | 37912 ft | 436 kts | 316° |
| 2026-04-21 10:07 | 28.91283 | 48.70943 | 37913 ft | 437 kts | 316° |
| 2026-04-21 10:07 | 28.96327 | 48.67058 | 37913 ft | 437 kts | 316° |
| 2026-04-21 10:08 | 29.01368 | 48.63172 | 37913 ft | 437 kts | 316° |
| 2026-04-21 10:08 | 29.06415 | 48.59277 | 37913 ft | 438 kts | 316° |
| 2026-04-21 10:09 | 29.11472 | 48.55385 | 37914 ft | 438 kts | 316° |
| 2026-04-21 10:09 | 29.16535 | 48.51488 | 37907 ft | 439 kts | 316° |
| 2026-04-21 10:10 | 29.21572 | 48.47616 | 37907 ft | 439 kts | 316° |
| 2026-04-21 10:10 | 29.26640 | 48.43690 | 37906 ft | 439 kts | 316° |
| 2026-04-21 10:11 | 29.31707 | 48.39754 | 37907 ft | 440 kts | 316° |
| 2026-04-21 10:11 | 29.36778 | 48.35809 | 37903 ft | 440 kts | 316° |
| 2026-04-21 10:12 | 29.41856 | 48.31861 | 37900 ft | 441 kts | 316° |
| 2026-04-21 10:12 | 29.47035 | 48.28047 | 37900 ft | 445 kts | 320° |
| 2026-04-21 10:13 | 29.52458 | 48.24568 | 37900 ft | 448 kts | 321° |
| 2026-04-21 10:13 | 29.57902 | 48.21069 | 37899 ft | 448 kts | 320° |
| 2026-04-21 10:14 | 29.63287 | 48.17537 | 37899 ft | 449 kts | 320° |
| 2026-04-21 10:14 | 29.68700 | 48.13968 | 37899 ft | 448 kts | 320° |
| 2026-04-21 10:15 | 29.74117 | 48.10393 | 37897 ft | 448 kts | 320° |
| 2026-04-21 10:15 | 29.79542 | 48.06842 | 37897 ft | 449 kts | 320° |
| 2026-04-21 10:16 | 29.84971 | 48.03251 | 37896 ft | 450 kts | 320° |
| 2026-04-21 10:16 | 29.90391 | 47.99653 | 37894 ft | 449 kts | 320° |
| 2026-04-21 10:17 | 29.95809 | 47.96051 | 37893 ft | 449 kts | 320° |
| 2026-04-21 10:17 | 30.01153 | 47.92357 | 37893 ft | 443 kts | 314° |
| 2026-04-21 10:18 | 30.05595 | 47.87606 | 37889 ft | 433 kts | 303° |
| 2026-04-21 10:18 | 30.09460 | 47.82339 | 37886 ft | 427 kts | 301° |
| 2026-04-21 10:19 | 30.13266 | 47.77102 | 37885 ft | 425 kts | 302° |
| 2026-04-21 10:19 | 30.17096 | 47.71930 | 37883 ft | 427 kts | 302° |
| 2026-04-21 10:20 | 30.20970 | 47.66724 | 37882 ft | 427 kts | 302° |
| 2026-04-21 10:20 | 30.24856 | 47.61509 | 37881 ft | 428 kts | 302° |
| 2026-04-21 10:21 | 30.28768 | 47.56304 | 37880 ft | 428 kts | 302° |
| 2026-04-21 10:21 | 30.32670 | 47.51080 | 37880 ft | 429 kts | 302° |
| 2026-04-21 10:22 | 30.36572 | 47.45851 | 37881 ft | 429 kts | 302° |
| 2026-04-21 10:22 | 30.40477 | 47.40620 | 37881 ft | 429 kts | 302° |
| 2026-04-21 10:23 | 30.44338 | 47.35408 | 37882 ft | 428 kts | 302° |
| 2026-04-21 10:23 | 30.48215 | 47.30162 | 37882 ft | 428 kts | 302° |
| 2026-04-21 10:24 | 30.52097 | 47.24902 | 37883 ft | 429 kts | 302° |
| 2026-04-21 10:24 | 30.55984 | 47.19639 | 37884 ft | 429 kts | 302° |
| 2026-04-21 10:25 | 30.59868 | 47.14366 | 37883 ft | 430 kts | 302° |
| 2026-04-21 10:25 | 30.63752 | 47.09084 | 37882 ft | 430 kts | 302° |
| 2026-04-21 10:26 | 30.67642 | 47.03780 | 37883 ft | 432 kts | 302° |
| 2026-04-21 10:26 | 30.71539 | 46.98459 | 37883 ft | 432 kts | 302° |
| 2026-04-21 10:27 | 30.75430 | 46.93139 | 37884 ft | 432 kts | 302° |
| 2026-04-21 10:27 | 30.79306 | 46.87839 | 37884 ft | 432 kts | 302° |
| 2026-04-21 10:28 | 30.83223 | 46.82526 | 37885 ft | 432 kts | 302° |
| 2026-04-21 10:28 | 30.87124 | 46.77200 | 37886 ft | 432 kts | 302° |
| 2026-04-21 10:29 | 30.91021 | 46.71861 | 37886 ft | 432 kts | 302° |
| 2026-04-21 10:29 | 30.94911 | 46.66522 | 37887 ft | 432 kts | 302° |
| 2026-04-21 10:30 | 30.98804 | 46.61169 | 37886 ft | 433 kts | 302° |
| 2026-04-21 10:30 | 31.02725 | 46.55807 | 37887 ft | 434 kts | 302° |
| 2026-04-21 10:31 | 31.06627 | 46.50429 | 37888 ft | 434 kts | 302° |
| 2026-04-21 10:31 | 31.10525 | 46.45033 | 37888 ft | 435 kts | 302° |
| 2026-04-21 10:32 | 31.14419 | 46.39637 | 37888 ft | 435 kts | 302° |
| 2026-04-21 10:32 | 31.18319 | 46.34229 | 37888 ft | 435 kts | 302° |
| 2026-04-21 10:33 | 31.22428 | 46.29060 | 37890 ft | 440 kts | 308° |
| 2026-04-21 10:33 | 31.27052 | 46.24318 | 37902 ft | 444 kts | 312° |
| 2026-04-21 10:34 | 31.31819 | 46.19690 | 37903 ft | 446 kts | 311° |
| 2026-04-21 10:34 | 31.36569 | 46.14983 | 37903 ft | 447 kts | 311° |
| 2026-04-21 10:35 | 31.41284 | 46.10249 | 37902 ft | 447 kts | 311° |
| 2026-04-21 10:35 | 31.45995 | 46.05493 | 37902 ft | 447 kts | 311° |
| 2026-04-21 10:36 | 31.50727 | 46.00747 | 37902 ft | 447 kts | 311° |
| 2026-04-21 10:36 | 31.55450 | 45.95991 | 37902 ft | 448 kts | 311° |
| 2026-04-21 10:37 | 31.60172 | 45.91217 | 37903 ft | 448 kts | 311° |
| 2026-04-21 10:37 | 31.64891 | 45.86433 | 37903 ft | 448 kts | 311° |
| 2026-04-21 10:38 | 31.69606 | 45.81644 | 37903 ft | 448 kts | 311° |
| 2026-04-21 10:38 | 31.74292 | 45.76877 | 37903 ft | 448 kts | 311° |
| 2026-04-21 10:39 | 31.79010 | 45.72072 | 37902 ft | 448 kts | 311° |
| 2026-04-21 10:39 | 31.83725 | 45.67261 | 37902 ft | 448 kts | 311° |
| 2026-04-21 10:40 | 31.88433 | 45.62452 | 37901 ft | 448 kts | 311° |
| 2026-04-21 10:40 | 31.93105 | 45.57672 | 37901 ft | 448 kts | 311° |
| 2026-04-21 10:41 | 31.97817 | 45.52845 | 37900 ft | 448 kts | 311° |
| 2026-04-21 10:41 | 32.02523 | 45.48018 | 37895 ft | 449 kts | 311° |
| 2026-04-21 10:42 | 32.07239 | 45.43173 | 37894 ft | 450 kts | 311° |
| 2026-04-21 10:42 | 32.11964 | 45.38312 | 37893 ft | 450 kts | 311° |
| 2026-04-21 10:43 | 32.15888 | 45.34270 | 37893 ft | 450 kts | 311° |
| 2026-04-21 10:43 | 32.20604 | 45.29404 | 37892 ft | 450 kts | 311° |
| 2026-04-21 10:44 | 32.25317 | 45.24536 | 37892 ft | 450 kts | 311° |
| 2026-04-21 10:44 | 32.30031 | 45.19660 | 37891 ft | 450 kts | 311° |
| 2026-04-21 10:45 | 32.34743 | 45.14778 | 37890 ft | 450 kts | 311° |
| 2026-04-21 10:45 | 32.39451 | 45.09893 | 37890 ft | 450 kts | 311° |
| 2026-04-21 10:46 | 32.44160 | 45.05001 | 37890 ft | 450 kts | 311° |
| 2026-04-21 10:46 | 32.48867 | 45.00104 | 37889 ft | 450 kts | 311° |
| 2026-04-21 10:47 | 32.53541 | 44.95234 | 37889 ft | 450 kts | 311° |
| 2026-04-21 10:47 | 32.58245 | 44.90325 | 37888 ft | 450 kts | 311° |
| 2026-04-21 10:48 | 32.62949 | 44.85409 | 37888 ft | 450 kts | 311° |
| 2026-04-21 10:48 | 32.67649 | 44.80490 | 37888 ft | 450 kts | 311° |
| 2026-04-21 10:49 | 32.72349 | 44.75564 | 37887 ft | 451 kts | 311° |
| 2026-04-21 10:49 | 32.77046 | 44.70635 | 37886 ft | 451 kts | 311° |
| 2026-04-21 10:50 | 32.81757 | 44.65683 | 37885 ft | 452 kts | 311° |
| 2026-04-21 10:50 | 32.86460 | 44.60732 | 37884 ft | 452 kts | 311° |
| 2026-04-21 10:51 | 32.91166 | 44.55770 | 37882 ft | 452 kts | 311° |
| 2026-04-21 10:51 | 32.95880 | 44.50820 | 37881 ft | 452 kts | 311° |
| 2026-04-21 10:52 | 33.00553 | 44.45883 | 37880 ft | 452 kts | 311° |
| 2026-04-21 10:52 | 33.05250 | 44.40899 | 37879 ft | 452 kts | 311° |
| 2026-04-21 10:53 | 33.09948 | 44.35905 | 37877 ft | 452 kts | 311° |
| 2026-04-21 10:53 | 33.14648 | 44.30918 | 37875 ft | 453 kts | 312° |
| 2026-04-21 10:54 | 33.20074 | 44.26920 | 37878 ft | 473 kts | 332° |
| 2026-04-21 10:54 | 33.26489 | 44.24875 | 37877 ft | 478 kts | 341° |
| 2026-04-21 10:55 | 33.32873 | 44.23924 | 37876 ft | 488 kts | 347° |
| 2026-04-21 10:55 | 33.39709 | 44.23502 | 37877 ft | 495 kts | 349° |
| 2026-04-21 10:56 | 33.46575 | 44.23039 | 37876 ft | 498 kts | 348° |
| 2026-04-21 10:56 | 33.53500 | 44.22458 | 37877 ft | 498 kts | 348° |
| 2026-04-21 10:57 | 33.60415 | 44.21850 | 37878 ft | 497 kts | 348° |
| 2026-04-21 10:57 | 33.67320 | 44.21241 | 37879 ft | 497 kts | 348° |
| 2026-04-21 10:58 | 33.74224 | 44.20627 | 37880 ft | 498 kts | 348° |
| 2026-04-21 10:58 | 33.81135 | 44.20010 | 37882 ft | 498 kts | 348° |
| 2026-04-21 10:59 | 33.88014 | 44.19394 | 37884 ft | 498 kts | 348° |
| 2026-04-21 10:59 | 33.94928 | 44.18774 | 37886 ft | 498 kts | 348° |
| 2026-04-21 11:00 | 34.01846 | 44.18153 | 37888 ft | 498 kts | 348° |
| 2026-04-21 11:00 | 34.08759 | 44.17531 | 37890 ft | 498 kts | 348° |
| 2026-04-21 11:01 | 34.15681 | 44.16908 | 37892 ft | 498 kts | 348° |
| 2026-04-21 11:01 | 34.22594 | 44.16286 | 37894 ft | 498 kts | 348° |
| 2026-04-21 11:02 | 34.32971 | 44.15347 | 37897 ft | 498 kts | 348° |
| 2026-04-21 11:02 | 34.39898 | 44.14718 | 37899 ft | 499 kts | 348° |
| 2026-04-21 11:03 | 34.46783 | 44.14078 | 37898 ft | 497 kts | 346° |
| 2026-04-21 11:03 | 34.53436 | 44.12245 | 37903 ft | 486 kts | 332° |
| 2026-04-21 11:04 | 34.59606 | 44.09028 | 37904 ft | 478 kts | 327° |
| 2026-04-21 11:04 | 34.65652 | 44.05674 | 37905 ft | 477 kts | 328° |
| 2026-04-21 11:05 | 34.71737 | 44.02428 | 37906 ft | 478 kts | 329° |
| 2026-04-21 11:05 | 34.77851 | 43.99203 | 37907 ft | 479 kts | 329° |
| 2026-04-21 11:06 | 34.83964 | 43.95992 | 37906 ft | 478 kts | 329° |
| 2026-04-21 11:06 | 34.90069 | 43.92791 | 37904 ft | 477 kts | 329° |
| 2026-04-21 11:07 | 34.96171 | 43.89576 | 37904 ft | 478 kts | 329° |
| 2026-04-21 11:07 | 35.02283 | 43.86358 | 37904 ft | 479 kts | 330° |
| 2026-04-21 11:08 | 35.08398 | 43.83128 | 37904 ft | 479 kts | 330° |
| 2026-04-21 11:08 | 35.14475 | 43.79901 | 37905 ft | 479 kts | 330° |
| 2026-04-21 11:09 | 35.20596 | 43.76644 | 37905 ft | 480 kts | 330° |
| 2026-04-21 11:09 | 35.26733 | 43.73376 | 37914 ft | 481 kts | 330° |
| 2026-04-21 11:10 | 35.29809 | 43.71736 | 38057 ft | 483 kts | 330° |
| 2026-04-21 11:10 | 35.32892 | 43.70095 | 38342 ft | 482 kts | 330° |
| 2026-04-21 11:10 | 35.35965 | 43.68459 | 38635 ft | 481 kts | 330° |
| 2026-04-21 11:10 | 35.39028 | 43.66825 | 38984 ft | 478 kts | 330° |
| 2026-04-21 11:11 | 35.42090 | 43.65190 | 39124 ft | 481 kts | 330° |
| 2026-04-21 11:11 | 35.45164 | 43.63546 | 39294 ft | 482 kts | 330° |
| 2026-04-21 11:11 | 35.48235 | 43.61903 | 39536 ft | 481 kts | 330° |
| 2026-04-21 11:11 | 35.51310 | 43.60256 | 39756 ft | 481 kts | 330° |
| 2026-04-21 11:12 | 35.54381 | 43.58609 | 39896 ft | 482 kts | 330° |
| 2026-04-21 11:12 | 35.57422 | 43.56978 | 39921 ft | 482 kts | 330° |
| 2026-04-21 11:12 | 35.63569 | 43.53691 | 39919 ft | 481 kts | 330° |
| 2026-04-21 11:13 | 35.69707 | 43.50409 | 39922 ft | 480 kts | 330° |
| 2026-04-21 11:13 | 35.75832 | 43.47118 | 39923 ft | 480 kts | 330° |
| 2026-04-21 11:14 | 35.81961 | 43.43826 | 39925 ft | 480 kts | 330° |
| 2026-04-21 11:14 | 35.88087 | 43.40530 | 39926 ft | 480 kts | 330° |
| 2026-04-21 11:15 | 35.94168 | 43.37237 | 39927 ft | 480 kts | 330° |
| 2026-04-21 11:15 | 36.00302 | 43.33907 | 39928 ft | 480 kts | 330° |
| 2026-04-21 11:16 | 36.06426 | 43.30581 | 39929 ft | 481 kts | 330° |
| 2026-04-21 11:16 | 36.12557 | 43.27235 | 39929 ft | 482 kts | 330° |
| 2026-04-21 11:17 | 36.18686 | 43.23858 | 39929 ft | 481 kts | 330° |
| 2026-04-21 11:17 | 36.24764 | 43.20503 | 39930 ft | 481 kts | 330° |
| 2026-04-21 11:18 | 36.30876 | 43.17123 | 39942 ft | 481 kts | 330° |
| 2026-04-21 11:18 | 36.36998 | 43.13733 | 39943 ft | 481 kts | 330° |
| 2026-04-21 11:19 | 36.43107 | 43.10356 | 39951 ft | 482 kts | 330° |
| 2026-04-21 11:19 | 36.49243 | 43.06979 | 39942 ft | 482 kts | 330° |
| 2026-04-21 11:20 | 36.55362 | 43.03594 | 39946 ft | 481 kts | 330° |
| 2026-04-21 11:20 | 36.61473 | 43.00185 | 39947 ft | 480 kts | 330° |
| 2026-04-21 11:21 | 36.67576 | 42.96774 | 39948 ft | 480 kts | 330° |
| 2026-04-21 11:21 | 36.73676 | 42.93362 | 39948 ft | 480 kts | 330° |
| 2026-04-21 11:22 | 36.79782 | 42.89956 | 39948 ft | 481 kts | 330° |
| 2026-04-21 11:22 | 36.85871 | 42.86613 | 39948 ft | 481 kts | 331° |
| 2026-04-21 11:23 | 36.92002 | 42.83230 | 39947 ft | 481 kts | 330° |
| 2026-04-21 11:23 | 36.98144 | 42.79855 | 39947 ft | 482 kts | 331° |
| 2026-04-21 11:24 | 37.04288 | 42.76469 | 39940 ft | 482 kts | 331° |
| 2026-04-21 11:24 | 37.09383 | 42.73640 | 39940 ft | 482 kts | 331° |
| 2026-04-21 11:25 | 37.15515 | 42.70229 | 39939 ft | 482 kts | 331° |
| 2026-04-21 11:25 | 37.21612 | 42.66827 | 39937 ft | 480 kts | 329° |
| 2026-04-21 11:26 | 37.27090 | 42.62197 | 39934 ft | 471 kts | 309° |
| 2026-04-21 11:26 | 37.31021 | 42.55688 | 39938 ft | 466 kts | 300° |
| 2026-04-21 11:27 | 37.34611 | 42.48983 | 39936 ft | 461 kts | 300° |
| 2026-04-21 11:27 | 37.38365 | 42.42497 | 39937 ft | 462 kts | 303° |
| 2026-04-21 11:28 | 37.42252 | 42.36036 | 39936 ft | 463 kts | 303° |
| 2026-04-21 11:28 | 37.46128 | 42.29524 | 39936 ft | 464 kts | 303° |
| 2026-04-21 11:29 | 37.49999 | 42.23008 | 39936 ft | 464 kts | 302° |
| 2026-04-21 11:29 | 37.53856 | 42.16496 | 39935 ft | 464 kts | 302° |
| 2026-04-21 11:30 | 37.57717 | 42.09969 | 39936 ft | 464 kts | 303° |
| 2026-04-21 11:30 | 37.61618 | 42.03476 | 39936 ft | 465 kts | 303° |
| 2026-04-21 11:31 | 37.65485 | 41.96932 | 39936 ft | 465 kts | 302° |
| 2026-04-21 11:31 | 37.69310 | 41.90419 | 39936 ft | 465 kts | 302° |
| 2026-04-21 11:32 | 37.73162 | 41.83850 | 39936 ft | 465 kts | 302° |
| 2026-04-21 11:32 | 37.77014 | 41.77278 | 39936 ft | 465 kts | 302° |
| 2026-04-21 11:33 | 37.80861 | 41.70705 | 39936 ft | 465 kts | 302° |
| 2026-04-21 11:33 | 37.84699 | 41.64126 | 39935 ft | 465 kts | 302° |
| 2026-04-21 11:34 | 37.88537 | 41.57532 | 39935 ft | 464 kts | 302° |
| 2026-04-21 11:34 | 37.92339 | 41.50987 | 39935 ft | 464 kts | 302° |
| 2026-04-21 11:35 | 37.96179 | 41.44401 | 39935 ft | 464 kts | 303° |
| 2026-04-21 11:35 | 38.00036 | 41.37857 | 39935 ft | 463 kts | 302° |
| 2026-04-21 11:36 | 38.03857 | 41.31252 | 39935 ft | 464 kts | 302° |
| 2026-04-21 11:36 | 38.07670 | 41.24631 | 39935 ft | 465 kts | 302° |
| 2026-04-21 11:37 | 38.11482 | 41.18004 | 39935 ft | 464 kts | 302° |
| 2026-04-21 11:37 | 38.14904 | 41.11164 | 39937 ft | 460 kts | 292° |
| 2026-04-21 11:38 | 38.17365 | 41.03676 | 39936 ft | 458 kts | 288° |
| 2026-04-21 11:38 | 38.19623 | 40.96098 | 39936 ft | 457 kts | 288° |
| 2026-04-21 11:39 | 38.21945 | 40.88574 | 39936 ft | 457 kts | 289° |
| 2026-04-21 11:39 | 38.24271 | 40.81047 | 39937 ft | 457 kts | 288° |
| 2026-04-21 11:40 | 38.26537 | 40.73498 | 39937 ft | 456 kts | 288° |
| 2026-04-21 11:40 | 38.28784 | 40.65944 | 39937 ft | 456 kts | 288° |
| 2026-04-21 11:41 | 38.31009 | 40.58442 | 39938 ft | 456 kts | 288° |
| 2026-04-21 11:41 | 38.33248 | 40.50878 | 39938 ft | 456 kts | 288° |
| 2026-04-21 11:42 | 38.35480 | 40.43319 | 39939 ft | 455 kts | 288° |
| 2026-04-21 11:42 | 38.37739 | 40.35779 | 39940 ft | 455 kts | 288° |
| 2026-04-21 11:43 | 38.40000 | 40.28227 | 39941 ft | 455 kts | 288° |
| 2026-04-21 11:43 | 38.42236 | 40.20673 | 39942 ft | 455 kts | 288° |
| 2026-04-21 11:44 | 38.44461 | 40.13113 | 39946 ft | 455 kts | 288° |
| 2026-04-21 11:44 | 38.46682 | 40.05538 | 39948 ft | 455 kts | 288° |
| 2026-04-21 11:45 | 38.48897 | 39.97961 | 39951 ft | 455 kts | 288° |
| 2026-04-21 11:45 | 38.51104 | 39.90389 | 39953 ft | 454 kts | 288° |
| 2026-04-21 11:46 | 38.53335 | 39.82842 | 39955 ft | 454 kts | 288° |
| 2026-04-21 11:46 | 38.55525 | 39.75275 | 39957 ft | 454 kts | 288° |
| 2026-04-21 11:47 | 38.57702 | 39.67696 | 39959 ft | 454 kts | 288° |
| 2026-04-21 11:47 | 38.59865 | 39.60151 | 39961 ft | 455 kts | 288° |
| 2026-04-21 11:48 | 38.62057 | 39.52505 | 39963 ft | 455 kts | 288° |
| 2026-04-21 11:48 | 38.64259 | 39.44973 | 39964 ft | 455 kts | 288° |
| 2026-04-21 11:49 | 38.66469 | 39.37397 | 39964 ft | 454 kts | 288° |
| 2026-04-21 11:49 | 38.68661 | 39.29808 | 39964 ft | 455 kts | 288° |
| 2026-04-21 11:50 | 38.70784 | 39.22176 | 39965 ft | 454 kts | 284° |
| 2026-04-21 11:50 | 38.72135 | 39.14289 | 39965 ft | 453 kts | 278° |
| 2026-04-21 11:51 | 38.73228 | 39.06349 | 39966 ft | 452 kts | 279° |
| 2026-04-21 11:51 | 38.74389 | 38.98422 | 39967 ft | 452 kts | 279° |
| 2026-04-21 11:52 | 38.75554 | 38.90515 | 39968 ft | 452 kts | 279° |
| 2026-04-21 11:52 | 38.76738 | 38.82604 | 39969 ft | 452 kts | 279° |
| 2026-04-21 11:53 | 38.77919 | 38.74685 | 39970 ft | 452 kts | 279° |
| 2026-04-21 11:53 | 38.79089 | 38.66768 | 39971 ft | 452 kts | 279° |
| 2026-04-21 11:54 | 38.80251 | 38.58852 | 39971 ft | 452 kts | 279° |
| 2026-04-21 11:54 | 38.81401 | 38.50972 | 39972 ft | 451 kts | 279° |
| 2026-04-21 11:55 | 38.82578 | 38.43067 | 39972 ft | 451 kts | 279° |
| 2026-04-21 11:55 | 38.83779 | 38.35163 | 39972 ft | 451 kts | 279° |
| 2026-04-21 11:56 | 38.84951 | 38.27253 | 39972 ft | 451 kts | 279° |
| 2026-04-21 11:56 | 38.86109 | 38.19334 | 39973 ft | 451 kts | 279° |
| 2026-04-21 11:57 | 38.87259 | 38.11402 | 39973 ft | 451 kts | 279° |
| 2026-04-21 11:57 | 38.88401 | 38.03483 | 39975 ft | 451 kts | 279° |
| 2026-04-21 11:58 | 38.89536 | 37.95566 | 39977 ft | 451 kts | 279° |
| 2026-04-21 11:58 | 38.90667 | 37.87634 | 39978 ft | 451 kts | 279° |
| 2026-04-21 11:59 | 38.91784 | 37.79759 | 39980 ft | 451 kts | 279° |
| 2026-04-21 11:59 | 38.92904 | 37.71825 | 39982 ft | 451 kts | 279° |
| 2026-04-21 12:00 | 38.94017 | 37.63903 | 39985 ft | 451 kts | 279° |
| 2026-04-21 12:00 | 38.95124 | 37.55980 | 39988 ft | 451 kts | 279° |
| 2026-04-21 12:01 | 38.96227 | 37.48048 | 39989 ft | 451 kts | 279° |
| 2026-04-21 12:01 | 38.97324 | 37.40113 | 39992 ft | 450 kts | 279° |
| 2026-04-21 12:02 | 38.98957 | 37.28224 | 39998 ft | 450 kts | 279° |
| 2026-04-21 12:03 | 39.00033 | 37.20341 | 40001 ft | 450 kts | 279° |
| 2026-04-21 12:03 | 39.01111 | 37.12408 | 40004 ft | 450 kts | 279° |
| 2026-04-21 12:04 | 39.02183 | 37.04470 | 40007 ft | 450 kts | 279° |
| 2026-04-21 12:04 | 39.03249 | 36.96536 | 40010 ft | 450 kts | 279° |
| 2026-04-21 12:05 | 39.04311 | 36.88586 | 40020 ft | 451 kts | 279° |
| 2026-04-21 12:05 | 39.05368 | 36.80633 | 40016 ft | 451 kts | 279° |
| 2026-04-21 12:06 | 39.06419 | 36.72682 | 40017 ft | 451 kts | 279° |
| 2026-04-21 12:06 | 39.07465 | 36.64729 | 40017 ft | 450 kts | 279° |
| 2026-04-21 12:07 | 39.08504 | 36.56779 | 40020 ft | 450 kts | 278° |
| 2026-04-21 12:07 | 39.09539 | 36.48821 | 40024 ft | 450 kts | 278° |
| 2026-04-21 12:08 | 39.10404 | 36.42212 | 40024 ft | 450 kts | 279° |
| 2026-04-21 12:08 | 39.11623 | 36.32969 | 40023 ft | 450 kts | 278° |
| 2026-04-21 12:09 | 39.12467 | 36.26303 | 40022 ft | 450 kts | 278° |
| 2026-04-21 12:09 | 39.13466 | 36.18346 | 40022 ft | 450 kts | 278° |
| 2026-04-21 12:10 | 39.14459 | 36.10416 | 40010 ft | 445 kts | 278° |
| 2026-04-21 12:10 | 39.15540 | 36.02643 | 40010 ft | 443 kts | 283° |
| 2026-04-21 12:11 | 39.17459 | 35.95096 | 40010 ft | 444 kts | 290° |
| 2026-04-21 12:11 | 39.19777 | 35.87721 | 40010 ft | 444 kts | 290° |
| 2026-04-21 12:12 | 39.22048 | 35.80304 | 40011 ft | 444 kts | 289° |
| 2026-04-21 12:12 | 39.24251 | 35.72854 | 40011 ft | 444 kts | 289° |
| 2026-04-21 12:13 | 39.26437 | 35.65397 | 40010 ft | 444 kts | 289° |
| 2026-04-21 12:13 | 39.28640 | 35.57949 | 40004 ft | 444 kts | 290° |
| 2026-04-21 12:14 | 39.30868 | 35.50565 | 40008 ft | 444 kts | 289° |
| 2026-04-21 12:14 | 39.33046 | 35.43102 | 40013 ft | 444 kts | 289° |
| 2026-04-21 12:15 | 39.35208 | 35.35623 | 40013 ft | 444 kts | 289° |
| 2026-04-21 12:15 | 39.37364 | 35.28144 | 40010 ft | 444 kts | 289° |
| 2026-04-21 12:16 | 39.39523 | 35.20655 | 40008 ft | 443 kts | 289° |
| 2026-04-21 12:16 | 39.41692 | 35.13201 | 40007 ft | 443 kts | 289° |
| 2026-04-21 12:17 | 39.43885 | 35.05751 | 40006 ft | 443 kts | 289° |
| 2026-04-21 12:17 | 39.46065 | 34.98294 | 40005 ft | 443 kts | 289° |
| 2026-04-21 12:18 | 39.48237 | 34.90833 | 40004 ft | 443 kts | 289° |
| 2026-04-21 12:18 | 39.50390 | 34.83415 | 40003 ft | 443 kts | 289° |
| 2026-04-21 12:19 | 39.52555 | 34.75949 | 40001 ft | 443 kts | 289° |
| 2026-04-21 12:19 | 39.54765 | 34.68500 | 40000 ft | 443 kts | 289° |
| 2026-04-21 12:20 | 39.56946 | 34.61035 | 39999 ft | 443 kts | 289° |
| 2026-04-21 12:20 | 39.59110 | 34.53564 | 39997 ft | 443 kts | 289° |
| 2026-04-21 12:21 | 39.61268 | 34.46080 | 39991 ft | 443 kts | 289° |
| 2026-04-21 12:21 | 39.63423 | 34.38581 | 39989 ft | 444 kts | 289° |
| 2026-04-21 12:22 | 39.65573 | 34.31078 | 39987 ft | 444 kts | 289° |
| 2026-04-21 12:22 | 39.67731 | 34.23626 | 39986 ft | 443 kts | 289° |
| 2026-04-21 12:23 | 39.69880 | 34.16119 | 39984 ft | 443 kts | 289° |
| 2026-04-21 12:23 | 39.72003 | 34.08601 | 39983 ft | 443 kts | 288° |
| 2026-04-21 12:24 | 39.74123 | 34.01069 | 39981 ft | 443 kts | 288° |
| 2026-04-21 12:24 | 39.76240 | 33.93539 | 39979 ft | 443 kts | 288° |
| 2026-04-21 12:25 | 39.78282 | 33.85976 | 39978 ft | 443 kts | 285° |
| 2026-04-21 12:25 | 39.79818 | 33.78227 | 39976 ft | 443 kts | 282° |
| 2026-04-21 12:26 | 39.81314 | 33.70458 | 39979 ft | 442 kts | 283° |
| 2026-04-21 12:26 | 39.82876 | 33.62719 | 39977 ft | 442 kts | 283° |
| 2026-04-21 12:27 | 39.84785 | 33.55165 | 39975 ft | 442 kts | 289° |
| 2026-04-21 12:27 | 39.87106 | 33.47740 | 39973 ft | 442 kts | 290° |
| 2026-04-21 12:28 | 39.89401 | 33.40301 | 39971 ft | 442 kts | 290° |
| 2026-04-21 12:28 | 39.91637 | 33.32836 | 39969 ft | 442 kts | 289° |
| 2026-04-21 12:29 | 39.93857 | 33.25362 | 39968 ft | 442 kts | 289° |
| 2026-04-21 12:29 | 39.96095 | 33.17896 | 39967 ft | 441 kts | 290° |
| 2026-04-21 12:30 | 39.98364 | 33.10462 | 39966 ft | 441 kts | 290° |
| 2026-04-21 12:30 | 40.00566 | 33.02997 | 39965 ft | 441 kts | 289° |
| 2026-04-21 12:31 | 40.02757 | 32.95515 | 39965 ft | 441 kts | 289° |
| 2026-04-21 12:31 | 40.04934 | 32.88070 | 39965 ft | 441 kts | 289° |
| 2026-04-21 12:32 | 40.07044 | 32.80549 | 39966 ft | 440 kts | 285° |
| 2026-04-21 12:32 | 40.08394 | 32.72766 | 39965 ft | 439 kts | 279° |
| 2026-04-21 12:33 | 40.09347 | 32.64897 | 39966 ft | 439 kts | 278° |
| 2026-04-21 12:33 | 40.10360 | 32.57036 | 39965 ft | 438 kts | 279° |
| 2026-04-21 12:34 | 40.11433 | 32.49199 | 39966 ft | 438 kts | 280° |
| 2026-04-21 12:34 | 40.12579 | 32.41384 | 39964 ft | 438 kts | 280° |
| 2026-04-21 12:35 | 40.13658 | 32.33587 | 39964 ft | 438 kts | 279° |
| 2026-04-21 12:35 | 40.14719 | 32.25752 | 39964 ft | 437 kts | 279° |
| 2026-04-21 12:36 | 40.15776 | 32.17917 | 39964 ft | 437 kts | 279° |